Latest Weather Observations for Thredbo Top Station

IDN60901

Issued at 5:01 am EST Wednesday 17 July 2019 (issued every 10 minutes, with the page automatically refreshed every 10 minutes)

About weather observations | Map of Canberra area stations | Latest observations for Canberra area | Other Formats
Station Details ID: 071032 Name: THREDBO AWS Lat: -36.49 Lon: 148.29 Height: 1957.0 m
Data from the previous 72 hours. | See also: Recent months at Thredbo Top Station
Date/Time
EST
Temp
°C
App
Temp
°C
Dew
Point
°C
Rel
Hum
%
Delta-T
°C
Wind Press
QNH
hPa
Press
MSL
hPa
Rain since
9am
mm
Dir  Spd
km/h
Gust
km/h
Spd
kts
Gust
kts
17/04:30am -3.1 -14.3 -3.4 98 0.0 NW 46 56 25 30 1016.1 1019.6 0.0
17/04:00am -3.0 -13.8 -3.3 98 0.0 NW 44 59 24 32 1016.5 1020.0 0.0
17/03:30am -3.0 -13.8 -3.3 98 0.0 NW 44 54 24 29 1016.6 1020.1 0.0
17/03:00am -2.9 -13.7 -3.2 98 0.0 NW 44 54 24 29 1016.6 1020.1 0.0
17/02:30am -2.9 -12.3 -3.2 98 0.0 WNW 37 63 20 34 1017.2 1020.7 0.0
17/02:12am -2.8 -11.8 -3.1 98 0.0 WNW 35 54 19 29 1017.6 1021.1 0.0
17/02:00am -2.7 -12.1 -3.0 98 0.0 WNW 37 50 20 27 1017.3 1020.9 0.0
17/01:30am -2.8 -11.5 -3.1 98 0.0 WNW 33 61 18 33 1017.7 1021.2 0.0
17/01:01am -2.8 -11.8 -3.1 98 0.0 WNW 35 54 19 29 1017.7 1021.2 0.0
17/01:00am -2.7 -11.7 -3.0 98 0.0 WNW 35 50 19 27 1017.6 1021.1 0.0
17/12:32am -2.8 -11.8 -3.1 98 0.0 W 35 57 19 31 1017.8 1021.4 0.0
17/12:30am -2.7 -11.7 -3.0 98 0.0 W 35 52 19 28 1017.9 1021.5 0.0
17/12:00am -2.6 -12.4 -2.9 98 0.0 WNW 39 59 21 32 1018.2 1021.8 0.0
 
Date/Time
EST
Temp
°C
App
Temp
°C
Dew
Point
°C
Rel
Hum
%
Delta-T
°C
Wind Press
QNH
hPa
Press
MSL
hPa
Rain since
9am
mm
Dir  Spd
km/h
Gust
km/h
Spd
kts
Gust
kts
16/11:35pm -2.4 -11.8 -2.7 98 0.0 W 37 56 20 30 1018.7 1022.3 0.0
16/11:30pm -2.4 -11.8 -2.7 98 0.0 W 37 54 20 29 1018.5 1022.1 0.0
16/11:11pm -2.1 -11.4 -2.4 98 0.0 W 37 56 20 30 1018.3 1021.9 0.0
16/11:00pm -2.2 -11.6 -2.5 98 0.0 W 37 54 20 29 1018.4 1022.0 0.0
16/10:30pm -2.2 -11.9 -2.5 98 0.0 W 39 57 21 31 1018.4 1022.0 0.0
16/10:03pm -1.8 -10.3 -2.1 98 0.0 W 33 52 18 28 1018.5 1022.1 0.0
16/10:00pm -1.7 -10.2 -2.0 98 0.0 W 33 46 18 25 1018.9 1022.5 0.0
16/09:44pm -1.4 -9.9 -1.7 98 0.0 W 33 52 18 28 1018.9 1022.5 0.0
16/09:30pm -1.3 -10.5 -1.6 98 0.0 W 37 46 20 25 1018.5 1022.1 0.0
16/09:00pm -1.1 -11.1 -1.4 98 0.1 W 41 57 22 31 1018.4 1022.0 0.0
16/08:38pm -1.0 -10.2 -1.3 98 0.1 W 37 56 20 30 1018.4 1022.0 0.0
16/08:30pm -0.9 -10.5 -1.2 98 0.1 W 39 54 21 29 1018.3 1021.9 0.0
16/08:00pm -0.8 -10.7 -1.1 98 0.1 W 41 57 22 31 1018.4 1022.0 0.0
16/07:31pm -0.8 -11.3 -1.1 98 0.1 W 44 63 24 34 1018.2 1021.8 0.0
16/07:30pm -0.8 -11.3 -1.1 98 0.1 W 44 61 24 33 1018.2 1021.8 0.0
16/07:00pm -0.7 -11.6 -1.0 98 0.1 W 46 65 25 35 1017.8 1021.4 0.0
16/06:55pm -0.7 -11.6 -1.0 98 0.1 W 46 65 25 35 1017.8 1021.4 0.0
16/06:30pm -0.6 -10.9 -0.9 98 0.1 W 43 59 23 32 1017.9 1021.5 0.0
16/06:26pm -0.6 -10.5 -0.9 98 0.1 W 41 59 22 32 1018.0 1021.6 0.0
16/06:00pm -0.6 -10.1 -0.9 98 0.1 W 39 50 21 27 1018.0 1021.6 0.0
16/05:42pm -0.6 -8.8 -0.9 98 0.1 WSW 32 50 17 27 1018.3 1021.9 0.0
16/05:30pm -0.7 -9.5 -1.0 98 0.1 WSW 35 50 19 27 1018.0 1021.6 0.0
16/05:00pm -0.8 -11.7 -1.1 98 0.1 W 46 59 25 32 1017.6 1021.1 0.0
16/04:30pm -0.6 -11.8 -0.9 98 0.1 W 48 61 26 33 1017.2 1020.7 0.0
16/04:00pm -0.8 -9.0 -1.1 98 0.1 W 32 48 17 26 1017.3 1020.9 0.0
16/03:56pm -0.8 -8.3 -1.1 98 0.1 W 28 46 15 25 1017.6 1021.1 0.0
16/03:30pm -0.8 -7.9 -1.1 98 0.1 W 26 39 14 21 1018.3 1021.9 0.0
16/03:00pm -0.9 -9.7 -1.2 98 0.1 W 35 44 19 24 1017.3 1020.9 0.0
16/02:30pm -1.0 -9.8 -1.3 98 0.1 W 35 46 19 25 1017.6 1021.1 0.0
16/02:00pm -1.1 -11.1 -1.4 98 0.1 W 41 54 22 29 1017.4 1021.0 0.0
16/01:30pm -1.4 -11.0 -1.7 98 0.0 W 39 56 21 30 1017.4 1021.0 0.0
16/01:00pm -1.6 -10.5 -1.9 98 0.0 W 35 56 19 30 1017.3 1020.9 0.0
16/12:30pm -1.9 -10.5 -2.2 98 0.0 W 33 57 18 31 1017.9 1021.5 0.0
16/12:01pm -2.1 -11.1 -2.4 98 0.0 W 35 54 19 29 1018.3 1021.9 0.0
16/12:00pm -2.1 -11.1 -2.4 98 0.0 W 35 50 19 27 1018.4 1022.0 0.0
16/11:41am -2.4 -12.2 -2.7 98 0.0 W 39 69 21 37 1018.2 1021.8 0.0
16/11:34am -2.6 -11.1 -2.9 98 0.0 W 32 50 17 27 1018.7 1022.3 0.0
16/11:30am -2.6 -11.1 -2.9 98 0.0 W 32 44 17 24 1018.7 1022.3 0.0
16/11:00am -2.8 -12.2 -3.1 98 0.0 W 37 56 20 30 1018.9 1022.5 0.0
16/10:30am -2.5 -11.5 -2.8 98 0.0 W 35 54 19 29 1018.9 1022.5 0.0
16/10:15am -2.4 -11.8 -2.7 98 0.0 WNW 37 59 20 32 1018.8 1022.4 0.0
16/10:00am -2.4 -11.4 -2.7 98 0.0 WNW 35 48 19 26 1019.0 1022.6 0.0
16/09:30am -2.5 -11.5 -2.8 98 0.0 WNW 35 50 19 27 1018.8 1022.4 0.0
16/09:00am -2.6 -12.0 -2.9 98 0.0 W 37 61 20 33 1018.8 1022.4 1.0
16/08:52am -2.7 -11.7 -3.0 98 0.0 W 35 61 19 33 1018.8 1022.4 1.0
16/08:30am -2.8 -11.8 -3.1 98 0.0 W 35 50 19 27 1018.7 1022.3 1.0
16/08:00am -2.9 -12.0 -3.2 98 0.0 W 35 54 19 29 1018.7 1022.3 1.0
16/07:30am -3.0 -12.4 -3.3 98 0.0 W 37 59 20 32 1018.5 1022.1 1.0
16/07:06am -2.9 -12.3 -3.2 98 0.0 W 37 56 20 30 1018.3 1021.9 1.0
16/07:00am -2.8 -12.2 -3.1 98 0.0 W 37 48 20 26 1018.3 1021.9 1.0
16/06:35am -2.7 -12.5 -3.0 98 0.0 W 39 59 21 32 1018.0 1021.6 1.0
16/06:30am -2.6 -12.4 -2.9 98 0.0 W 39 54 21 29 1018.2 1021.8 1.0
16/06:00am -2.5 -12.3 -2.8 98 0.0 WSW 39 57 21 31 1018.3 1021.9 1.0
16/05:30am -2.7 -12.5 -3.0 98 0.0 WSW 39 59 21 32 1017.9 1021.5 1.0
16/05:10am -2.8 -12.2 -3.1 98 0.0 W 37 56 20 30 1017.6 1021.1 1.0
16/05:00am -2.8 -11.8 -3.1 98 0.0 W 35 50 19 27 1017.7 1021.2 1.0
16/04:30am -2.9 -12.7 -3.2 98 0.0 W 39 57 21 31 1017.9 1021.5 1.0
16/04:17am -2.8 -12.2 -3.1 98 0.0 W 37 57 20 31 1018.3 1021.9 1.0
16/04:00am -2.7 -11.7 -3.0 98 0.0 W 35 50 19 27 1018.2 1021.8 1.0
16/03:38am -2.7 -12.1 -3.0 98 0.0 W 37 56 20 30 1017.9 1021.5 1.0
16/03:30am -2.6 -11.2 -2.9 98 0.0 W 33 48 18 26 1018.0 1021.6 1.0
16/03:00am -2.5 -11.5 -2.8 98 0.0 W 35 44 19 24 1018.5 1022.1 1.0
16/02:37am -2.2 -11.6 -2.5 98 0.0 W 37 72 20 39 1018.9 1022.5 1.0
16/02:30am -2.2 -10.8 -2.5 98 0.0 W 33 46 18 25 1018.4 1022.0 1.0
16/02:00am -2.0 -10.9 -2.3 98 0.0 W 35 46 19 25 1018.7 1022.3 1.0
16/01:30am -1.8 -11.5 -2.1 98 0.0 W 39 67 21 36 1018.9 1022.5 1.0
16/01:00am -1.7 -11.4 -2.0 98 0.0 W 39 57 21 31 1018.8 1022.4 1.0
16/12:34am -1.7 -11.0 -2.0 98 0.0 W 37 56 20 30 1019.3 1022.9 1.0
16/12:30am -1.7 -11.0 -2.0 98 0.0 W 37 54 20 29 1019.3 1022.9 1.0
16/12:00am -1.7 -10.6 -2.0 98 0.0 WSW 35 57 19 31 1019.6 1023.3 1.0
 
Date/Time
EST
Temp
°C
App
Temp
°C
Dew
Point
°C
Rel
Hum
%
Delta-T
°C
Wind Press
QNH
hPa
Press
MSL
hPa
Rain since
9am
mm
Dir  Spd
km/h
Gust
km/h
Spd
kts
Gust
kts
15/11:30pm -1.8 -11.1 -2.1 98 0.0 W 37 57 20 31 1019.7 1023.4 1.0
15/11:00pm -1.9 -12.0 -2.2 98 0.0 WSW 41 63 22 34 1019.7 1023.4 1.0
15/10:30pm -1.9 -10.8 -2.2 98 0.0 W 35 54 19 29 1019.9 1023.5 1.0
15/10:00pm -1.8 -11.5 -2.1 98 0.0 W 39 65 21 35 1019.1 1022.8 1.0
15/09:31pm -1.8 -11.9 -2.1 98 0.0 W 41 82 22 44 1019.7 1023.4 1.0
15/09:30pm -1.8 -11.9 -2.1 98 0.0 W 41 54 22 29 1019.6 1023.3 1.0
15/09:00pm -1.9 -12.0 -2.2 98 0.0 W 41 61 22 33 1019.1 1022.8 1.0
15/08:30pm -1.9 -12.0 -2.2 98 0.0 W 41 65 22 35 1019.1 1022.8 1.0
15/08:02pm -1.7 -11.7 -2.0 98 0.0 W 41 59 22 32 1019.0 1022.6 1.0
15/08:00pm -1.7 -12.1 -2.0 98 0.0 W 43 59 23 32 1019.0 1022.6 1.0
15/07:30pm -1.7 -11.7 -2.0 98 0.0 W 41 59 22 32 1019.1 1022.8 1.0
15/07:03pm -1.8 -12.8 -2.1 98 0.0 W 46 65 25 35 1018.5 1022.1 1.0
15/07:00pm -1.8 -12.4 -2.1 98 0.0 W 44 61 24 33 1018.7 1022.3 1.0
15/06:39pm -1.9 -10.8 -2.2 98 0.0 W 35 54 19 29 1018.7 1022.3 1.0
15/06:30pm -2.0 -11.3 -2.3 98 0.0 W 37 52 20 28 1018.7 1022.3 1.0
15/06:00pm -2.1 -10.7 -2.4 98 0.0 W 33 48 18 26 1018.5 1022.1 1.0
15/05:33pm -2.4 -10.8 -2.7 98 0.0 W 32 50 17 27 1018.3 1021.9 1.0
15/05:30pm -2.4 -10.8 -2.7 98 0.0 W 32 50 17 27 1018.2 1021.8 1.0
15/05:29pm -2.4 -11.0 -2.7 98 0.0 W 33 50 18 27 1018.3 1021.9 1.0
15/05:02pm -2.7 -12.1 -3.0 98 0.0 WSW 37 56 20 30 1017.9 1021.5 1.0
15/05:00pm -2.7 -11.7 -3.0 98 0.0 WSW 35 52 19 28 1017.7 1021.2 1.0
15/04:30pm -2.8 -10.9 -3.1 98 0.0 W 30 48 16 26 1017.9 1021.5 1.0
15/04:22pm -2.9 -11.0 -3.2 98 0.0 W 30 48 16 26 1017.8 1021.4 1.0
15/04:00pm -3.1 -11.8 -3.4 98 0.0 W 33 48 18 26 1017.6 1021.1 1.0
15/03:30pm -3.4 -12.9 -3.7 98 -0.1 W 37 56 20 30 1017.0 1020.5 1.0
15/03:00pm -3.6 -13.1 -3.9 98 -0.1 W 37 57 20 31 1016.7 1020.2 1.0
15/02:47pm -3.6 -12.7 -4.0 97 0.0 WSW 35 54 19 29 1016.5 1020.0 1.0
15/02:30pm -3.7 -12.9 -4.1 97 0.0 W 35 46 19 25 1016.4 1019.8 1.0
15/02:00pm -3.7 -12.9 -4.1 97 0.0 W 35 54 19 29 1016.0 1019.5 1.0
15/01:30pm -3.8 -12.6 -4.2 97 0.0 WSW 33 56 18 30 1015.9 1019.3 1.0
15/01:15pm -3.8 -12.6 -4.2 97 0.0 W 33 52 18 28 1015.9 1019.3 1.0
15/01:00pm -3.8 -13.4 -4.2 97 0.0 WSW 37 59 20 32 1015.9 1019.3 1.0
15/12:36pm -3.8 -13.0 -4.2 97 0.0 WSW 35 54 19 29 1015.9 1019.3 1.0
15/12:30pm -3.8 -13.4 -4.2 97 0.0 SW 37 54 20 29 1015.9 1019.3 1.0
15/12:07pm -4.0 -11.9 -4.4 97 0.0 SW 28 46 15 25 1016.0 1019.5 1.0
15/12:00pm -4.0 -11.9 -4.4 97 0.0 WSW 28 37 15 20 1016.1 1019.6 1.0
15/11:30am -4.0 -14.3 -4.4 97 0.0 SW 41 52 22 28 1016.0 1019.5 1.0
15/11:08am -4.1 -12.9 -4.5 97 0.0 SW 33 52 18 28 1015.7 1019.2 1.0
15/11:00am -4.2 -13.0 -4.6 97 0.0 SW 33 43 18 23 1015.9 1019.3 1.0
15/10:30am -4.3 -13.5 -4.7 97 -0.1 SSW 35 50 19 27 1016.0 1019.5 1.0
15/10:00am -4.4 -14.4 -4.8 97 -0.1 S 39 57 21 31 1015.7 1019.2 1.0
15/09:30am -4.7 -13.0 -5.1 97 -0.1 S 30 48 16 26 1015.5 1019.0 0.8
15/09:04am -4.7 -15.7 -5.1 97 -0.1 SSW 44 63 24 34 1014.5 1017.9 0.0
15/09:00am -4.7 -16.4 -5.1 97 -0.1 SSW 48 63 26 34 1014.4 1017.8 3.8
15/08:35am -4.6 -14.6 -5.0 97 -0.1 SSW 39 59 21 32 - - 3.8
15/08:30am -4.7 -15.1 -5.1 97 -0.1 SSW 41 57 22 31 - - 3.8
15/08:04am -4.8 -16.9 -5.2 97 -0.1 SSW 50 69 27 37 - - 3.8
15/08:00am -4.8 -17.3 -5.2 97 -0.1 SSW 52 69 28 37 - - 3.8
15/07:30am -4.8 -16.9 -5.2 97 -0.1 SSW 50 70 27 38 - - 3.8
15/07:01am -4.7 -14.3 -5.1 97 -0.1 SSW 37 56 20 30 - - 3.6
15/07:00am -4.7 -14.3 -5.1 97 -0.1 SSW 37 54 20 29 - - 3.6
15/06:52am -4.8 -15.6 -5.2 97 -0.1 SSW 43 57 23 31 - - 3.6
15/06:30am -4.5 -18.3 -4.9 97 -0.1 SSW 59 89 32 48 - - 3.6
15/06:25am -4.4 -16.9 -4.8 97 -0.1 SSW 52 89 28 48 - - 3.6
15/06:00am -4.3 -15.6 -4.7 97 -0.1 SW 46 67 25 36 - - 3.6
15/05:30am -4.2 -16.3 -4.6 97 0.0 SW 50 74 27 40 - - 3.6
15/05:00am -4.0 -15.3 -4.4 97 0.0 SW 46 67 25 36 - - 3.4
15/04:30am -3.3 -16.0 -3.6 98 0.0 SW 54 85 29 46 - - 3.4
15/04:22am -3.2 -13.4 -3.5 98 0.0 SW 41 85 22 46 - - 3.4
15/04:21am -3.2 -12.7 -3.5 98 0.0 SW 37 69 20 37 - - 3.4
15/04:17am -3.1 -11.2 -3.4 98 0.0 SW 30 48 16 26 - - 3.4
15/04:00am -3.0 -11.1 -3.3 98 0.0 WSW 30 44 16 24 - - 2.8
15/03:30am -2.8 -11.8 -3.1 98 0.0 WSW 35 61 19 33 - - 2.8
15/03:27am -2.8 -11.3 -3.1 98 0.0 WSW 32 61 17 33 - - 2.8
15/03:05am -2.8 -11.5 -3.1 98 0.0 WSW 33 48 18 26 - - 2.0
15/03:00am -2.8 -12.2 -3.1 98 0.0 W 37 54 20 29 - - 1.8
15/02:31am -2.8 -13.4 -3.1 98 0.0 W 43 67 23 36 - - 1.6
15/02:30am -2.7 -13.3 -3.0 98 0.0 W 43 59 23 32 - - 1.6
15/02:00am -2.7 -12.5 -3.0 98 0.0 W 39 67 21 36 - - 1.4
15/01:44am -2.7 -11.7 -3.0 98 0.0 W 35 63 19 34 - - 1.2
15/01:30am -2.7 -11.2 -3.0 98 0.0 WNW 32 46 17 25 - - 1.2
15/01:10am -2.6 -11.6 -2.9 98 0.0 WNW 35 54 19 29 - - 1.2
15/01:00am -2.6 -11.2 -2.9 98 0.0 WNW 33 48 18 26 - - 1.2
15/12:30am -2.6 -11.6 -2.9 98 0.0 WNW 35 56 19 30 - - 1.2
15/12:00am -2.5 -12.6 -2.8 98 0.0 WNW 41 61 22 33 - - 1.0
 
Date/Time
EST
Temp
°C
App
Temp
°C
Dew
Point
°C
Rel
Hum
%
Delta-T
°C
Wind Press
QNH
hPa
Press
MSL
hPa
Rain since
9am
mm
Dir  Spd
km/h
Gust
km/h
Spd
kts
Gust
kts
14/11:30pm -2.5 -12.3 -2.8 98 0.0 WNW 39 57 21 31 - - 1.0
14/11:00pm -2.5 -14.4 -2.8 98 0.0 WNW 50 69 27 37 - - 0.8
14/10:30pm -2.7 -14.6 -3.0 98 0.0 WNW 50 78 27 42 - - 0.8
14/10:02pm -2.8 -15.5 -3.1 98 0.0 WNW 54 76 29 41 - - 0.8
14/10:00pm -2.8 -15.5 -3.1 98 0.0 WNW 54 70 29 38 - - 0.8
14/09:30pm -3.0 -17.4 -3.3 98 0.0 WNW 63 83 34 45 - - 0.6
14/09:00pm -3.2 -18.0 -3.5 98 0.0 WNW 65 95 35 51 - - 0.4
14/08:30pm -3.4 -17.5 -3.7 98 -0.1 NW 61 87 33 47 - - 0.4
14/08:00pm -3.7 -19.3 -4.0 98 -0.1 NW 69 91 37 49 - - 0.2
14/07:30pm -3.8 -19.6 -4.2 97 0.0 NW 70 93 38 50 - - 0.2
14/07:00pm -4.0 -20.6 -4.4 97 0.0 NW 74 93 40 50 - - 0.0
14/06:30pm -4.2 -22.3 -4.6 97 0.0 NW 82 107 44 58 - - 0.0
14/06:00pm -4.5 -21.5 -4.9 97 -0.1 NW 76 106 41 57 - - 0.0
14/05:58pm -4.5 -21.9 -4.9 97 -0.1 NW 78 106 42 57 - - 0.0
14/05:55pm -4.5 -22.9 -4.9 97 -0.1 NW 83 106 45 57 - - 0.0
14/05:30pm -4.6 -25.3 -5.0 97 -0.1 NW 95 124 51 67 - - 0.0
14/05:00pm -4.8 -26.0 -5.2 97 -0.1 NW 98 128 53 69 - - 0.0
14/04:30pm -5.0 -25.9 -5.4 97 -0.1 NW 96 115 52 62 - - 0.0
14/04:00pm -5.0 -25.7 -5.4 97 -0.1 NW 95 120 51 65 - - 0.0
14/03:30pm -5.1 -25.8 -5.5 97 -0.1 NW 95 115 51 62 - - 0.0
14/03:00pm -5.1 -26.4 -5.5 97 -0.1 NW 98 117 53 63 - - 0.0
14/02:36pm -5.2 -25.2 -5.6 97 -0.1 NW 91 109 49 59 - - 0.0
14/02:30pm -5.2 -24.8 -5.6 97 -0.1 NW 89 100 48 54 - - 0.0
14/02:00pm -5.2 -23.6 -5.6 97 -0.1 NW 83 100 45 54 - - 0.0
14/01:42pm -5.2 -24.0 -5.6 97 -0.1 NW 85 104 46 56 - - 0.0
14/01:30pm -5.2 -25.5 -5.6 97 -0.1 NNW 93 107 50 58 - - 0.0
14/01:00pm -5.1 -26.0 -5.5 97 -0.1 NNW 96 122 52 66 - - 0.0
14/12:50pm -5.1 -26.0 -5.5 97 -0.1 NNW 96 119 52 64 - - 0.0
14/12:30pm -5.0 -24.6 -5.4 97 -0.1 NW 89 106 48 57 - - 0.0
14/12:00pm -4.9 -23.7 -5.3 97 -0.1 NNW 85 117 46 63 - - 0.0
14/11:40am -4.8 -22.2 -5.2 97 -0.1 NW 78 98 42 53 - - 0.0
14/11:38am -4.8 -21.9 -5.2 97 -0.1 NW 76 98 41 53 - - 0.0
14/11:30am -4.7 -20.0 -5.1 97 -0.1 NW 67 87 36 47 - - 0.0
14/11:00am -4.7 -21.4 -5.1 97 -0.1 NW 74 93 40 50 - - 0.0
14/10:30am -4.7 -21.8 -5.1 97 -0.1 NW 76 100 41 54 - - 0.0
14/10:01am -4.7 -22.9 -5.1 97 -0.1 NNW 82 104 44 56 - - 0.0
14/10:00am -4.7 -22.9 -5.1 97 -0.1 NNW 82 104 44 56 - - 0.0
14/09:59am -4.6 -22.4 -5.0 97 -0.1 NW 80 104 43 56 - - 0.0
14/09:56am -4.7 -22.1 -5.1 97 -0.1 NW 78 98 42 53 - - 0.0
14/09:38am -4.7 -20.0 -5.1 97 -0.1 NW 67 111 36 60 1014.5 1017.9 0.0
14/09:30am -4.8 -19.8 -5.2 97 -0.1 NW 65 89 35 48 1014.8 1018.2 0.0
14/09:04am -5.3 -19.6 -5.7 97 -0.1 NW 61 80 33 43 1014.5 1017.9 0.0
14/09:00am -5.3 -19.2 -5.7 97 -0.1 NW 59 76 32 41 1014.5 1017.9 0.2
14/08:30am -6.0 -19.4 -6.4 97 -0.1 WNW 56 80 30 43 1015.3 1018.7 0.2
14/08:23am -6.1 -19.7 -6.5 97 -0.1 WNW 57 80 31 43 1015.1 1018.6 0.2
14/08:00am -6.6 -21.0 -7.0 97 -0.1 NW 61 78 33 42 1014.3 1017.7 0.2
14/07:39am -6.9 -20.0 -7.3 97 -0.1 NW 54 76 29 41 1014.4 1017.8 0.2
14/07:30am -7.1 -19.8 -7.5 97 -0.2 NW 52 67 28 36 1014.9 1018.3 0.2
14/07:13am -7.2 -19.6 -7.6 97 -0.2 WNW 50 70 27 38 1014.9 1018.3 0.2
14/07:00am -7.3 -18.3 -7.7 97 -0.2 WNW 43 57 23 31 1015.4 1018.8 0.2
14/06:30am -7.3 -19.7 -7.7 97 -0.2 WNW 50 59 27 32 1014.8 1018.2 0.2
14/06:00am -7.2 -19.2 -7.6 97 -0.2 WNW 48 61 26 33 1014.4 1017.8 0.2
14/05:32am -7.0 -19.0 -7.4 97 -0.1 WNW 48 67 26 36 - - 0.2
14/05:30am -7.0 -18.6 -7.4 97 -0.1 WNW 46 61 25 33 1014.3 1017.7 0.2

Latest Capital City Observations: Canberra | Sydney | Melbourne | Brisbane | Adelaide | Perth | Hobart | Darwin

Other formats

Comma delimited format used in spreadsheet applications
http://www.bom.gov.au/fwo/IDN60903/IDN60903.95909.axf

JavaScript Object Notation format (JSON) in row-major order
http://www.bom.gov.au/fwo/IDN60903/IDN60903.95909.json

Data quality

Most of these data are generated automatically and are frequently updated. Quality checks on data are not normally performed. It is possible for incorrect values to appear. Refer to information at About Latest Weather Observations and please check the disclaimer before using these data.